x

Diamond Shoals (41025) Wave Buoy

3:50pm - Fri 24th Oct 2014 All times are EDT. -4 hours from GMT.

  • Sig Wave height 3.6ft
  • Swell Direction
  • Peak Period 10s
  • Average Period 5s
  • Wind
    13mph, 16mph gusts
  • Air Temp 64°f
  • Sea Pressure 1014mb
  • Diamond Shoals
  • Diamond Shoals

More Historic Weather Station data

Upgrade to MSW Pro to gain access to the past 30 days of data for over 8000 Wavebouys and Weather Stations around the globe.

Join Pro

Comparision Forecast

View Surf forecast
   
Fri 10/24 3:50pm 3.5ft 10s 5s 13 16 mph 1014mb 64f
2:50pm 3.5ft 9s 5s 11 18 mph 1014.3mb 62f
1:50pm 3.5ft 10s 5s 16 20 mph 1014.7mb 62f
12:50pm 4ft 9s 5s 16 20 mph 1015.1mb 62f
10:50am 4.5ft 9s 5s 16 20 mph 1016mb 62f
9:50am 4.5ft 4s 5s 18 22 mph 1015.2mb 61f
8:50am 4.5ft 5s 5s 20 25 mph 1015mb 62f
7:50am 4.5ft 6s 5s 20 27 mph 1014.6mb 62f
6:50am 4.5ft 5s 5s 22 25 mph 1014.1mb 61f
5:50am 4.5ft 4s 5s 20 27 mph 1013.6mb 62f
4:50am 4.5ft 7s 4s 25 29 mph 1012.8mb 63f
3:50am 4.5ft 5s 5s 25 31 mph 1012.8mb 64f
2:50am 4.5ft 7s 5s 22 25 mph 1013.7mb 64f
1:50am 4.5ft 5s 5s 20 22 mph 1013.8mb 64f
12:50am 4.5ft 5s 5s 18 22 mph 1014mb 64f
Thu 10/23 11:50pm 4.5ft 5s 5s 20 22 mph 1013.7mb 65f
10:50pm 4.5ft 5s 5s 22 27 mph 1013.6mb 66f
9:50pm 4.5ft 5s 5s 20 22 mph 1013.5mb 65f
8:50pm 5ft 5s 5s 18 20 mph 1013.1mb 65f
7:50pm 5ft 5s 5s 18 25 mph 1012.7mb 65f
6:50pm 5ft 5s 5s 20 25 mph 1012.2mb 65f
5:50pm 5ft 6s 5s 20 25 mph 1011.5mb 65f
4:50pm 5ft 6s 5s 20 25 mph 1011.1mb 65f
3:50pm 5ft 6s 5s 20 25 mph 1011.1mb 64f
2:50pm 5ft 6s 5s 20 25 mph 1011.4mb 63f
1:50pm 5.5ft 10s 5s 22 27 mph 1011.5mb 62f
12:50pm  -   -   -  22 31 mph 1012.6mb 61f
11:50am 7ft 6s 5s 25 34 mph 1012.7mb 60f
8:50am 6.5ft 6s 5s 31 38 mph 1012.3mb 59f
7:50am 5.5ft 6s 5s 27 34 mph 1012.2mb 58f
6:50am 6ft 5s 5s 29 36 mph 1011.7mb 58f
5:50am 5.5ft 6s 5s 27 34 mph 1011.7mb 58f
4:50am 5.5ft 5s 5s 25 31 mph 1011.5mb 59f
3:50am 5.5ft 5s 5s 27 31 mph 1011.3mb 59f
2:50am 5.5ft 5s 5s 25 31 mph 1011.8mb 59f
1:50am 5.5ft 5s 5s 27 34 mph 1012.1mb 60f
12:50am 5.5ft 5s 5s 25 31 mph 1012.2mb 60f
Wed 10/22 11:50pm 6ft 6s 5s 27 34 mph 1012.1mb 60f
10:50pm 6ft 6s 5s 29 34 mph 1012mb 61f
9:50pm 6ft 6s 5s 29 36 mph 1011.8mb 61f
8:50pm 6.5ft 5s 5s 31 38 mph 1011.3mb 62f
7:50pm 6ft 5s 5s 31 36 mph 1010.9mb 61f
6:50pm 6ft 5s 5s 31 38 mph 1010.4mb 61f
5:50pm 6ft 6s 5s 31 36 mph 1010.1mb 62f
4:50pm 6ft 6s 5s 31 36 mph 1010mb 62f
3:50pm 5ft 5s 4s 29 36 mph 1010.1mb 62f
2:50pm 5ft 5s 4s 29 36 mph 1009.9mb 62f
1:50pm 4.5ft 4s 4s 25 31 mph 1010.4mb 62f
12:50pm 4.5ft 5s 4s 27 34 mph 1010.6mb 62f
11:50am 5ft 5s 4s 25 29 mph 1010.9mb 61f
10:50am 4.5ft 5s 4s 25 29 mph 1010.9mb 60f
9:50am 4.5ft 5s 4s 25 29 mph 1010.9mb 62f
8:50am 4ft 5s 4s 25 29 mph 1010.6mb 62f
7:50am 3.5ft 4s 4s 25 29 mph 1009.9mb 62f
6:50am 3.5ft 4s 4s 22 29 mph 1009.5mb 61f
5:50am 3ft 4s 4s 20 25 mph 1009.2mb 63f
4:50am 3.5ft 4s 4s 13 18 mph 1008.9mb 65f
3:50am 3.5ft 4s 4s 18 20 mph 1008.7mb 66f
2:50am 3.5ft 10s 4s 22 27 mph 1008.9mb 66f
1:50am 3.5ft 6s 4s 16 20 mph 1009mb 72f
12:50am 3.5ft 5s 4s 18 20 mph 1009.6mb 72f
Tue 10/21 11:50pm 3.5ft 6s 4s 16 20 mph 1010mb 72f
10:50pm 3.5ft 4s 4s 18 20 mph 1010.6mb 72f
9:50pm 3.5ft 6s 4s 22 27 mph 1010.2mb 72f
8:50pm 3.5ft 9s 4s 20 25 mph 1010.4mb 72f
7:50pm 3ft 8s 4s 18 22 mph 1010.7mb 72f
6:50pm 2.5ft 9s 4s 18 22 mph 1010.4mb 73f
5:50pm 2.5ft 9s 4s 16 20 mph 1010.5mb 73f
4:50pm 2.5ft 5s 4s 13 18 mph 1010.6mb 73f
3:50pm 2.5ft 4s 4s 13 18 mph 1010.8mb 73f
2:50pm 2.5ft 9s 4s 13 18 mph 1011.1mb 72f
1:50pm 2.5ft 4s 4s 11 13 mph 1011.8mb 72f
12:50pm 2.5ft 10s 4s 11 13 mph 1012.5mb 71f
11:50am 2.5ft 11s 4s 13 18 mph 1013mb 70f
10:50am 2.5ft 4s 4s 13 18 mph 1013.2mb 70f
9:50am 3ft 5s 4s 13 18 mph 1013.5mb 70f
8:50am 3.5ft 5s 5s 16 18 mph 1013.3mb 70f
7:50am 4ft 5s 5s 13 18 mph 1013mb 69f
6:50am 3.5ft 5s 5s 7 11 mph 1013mb 67f
5:50am 3.5ft 4s 5s 4 9 mph 1013.3mb 65f
4:50am 3.5ft 8s 5s 7 9 mph 1013.9mb 64f
3:50am 3.5ft 4s 5s 13 16 mph 1013.5mb 67f
2:50am 3.5ft 4s 4s 18 25 mph 1013.8mb 73f
1:50am 3.5ft 11s 4s 18 22 mph 1014.6mb 73f
12:50am 3.5ft 8s 4s 18 22 mph 1015.5mb 73f
Mon 10/20 11:50pm 3.5ft 8s 5s 18 22 mph 1016.3mb 72f
10:50pm 3.5ft 9s 5s 18 22 mph 1016.9mb 72f
9:50pm 3.5ft 8s 5s 16 22 mph 1017.3mb 72f
8:50pm 4ft 8s 5s 13 20 mph 1017.3mb 72f